AirNav   Bose Proflight Series 2 Wireless Aviation Headset
 
 973 users online  

56NJ Blue Jay Heliport
Mount Holly, New Jersey, USA

GOING TO MOUNT HOLLY?


FAA INFORMATION EFFECTIVE 07 NOVEMBER 2019

Location

FAA Identifier: 56NJ
Lat/Long: 40-00-24.4020N 074-51-48.5940W
40-00.406700N 074-51.809900W
40.0067783,-74.8634983
(estimated)
Elevation: 28 ft. / 9 m (estimated)
Variation: 12W (1985)
From city: 1 mile W of MOUNT HOLLY, NJ
Time zone: UTC -5 (UTC -4 during Daylight Saving Time)
Zip code: 08060

Heliport Operations

Heliport use: Private use. Permission required prior to landing
Activation date: 07/1984
Control tower: no
ARTCC: NEW YORK CENTER
FSS: MILLVILLE FLIGHT SERVICE STATION
Attendance: UNATNDD
Wind indicator: no
Segmented circle: no

Heliport Communications

WX ASOS at VAY (4 nm S): 119.325 (609-267-1176)
WX ASOS at PNE (8 nm NW): PHONE 215-677-0146
WX ASOS at TTN (16 nm N): 126.775 (609-538-8690)
WX ASOS at PHL (19 nm SW): PHONE 215-492-9617

Nearby radio navigation aids

VOR radial/distance  VOR name  Freq  Var
GXUr281/12.3MC GUIRE VORTAC110.6012W
ARDr182/14.9YARDLEY VOR/DME108.2010W
RBVr245/20.6ROBBINSVILLE VORTAC113.8010W
CYNr310/22.9COYLE VORTAC113.4010W
VCNr020/28.5CEDAR LAKE VOR/DME115.2010W
OODr052/30.1WOODSTOWN VORTAC112.8010W
PTWr121/34.5POTTSTOWN VORTAC116.5009W
SBJr199/35.0SOLBERG VOR/DME112.9010W
ACYr348/35.6ATLANTIC CITY VORTAC108.6010W
COLr251/37.1COLTS NECK VOR/DME115.4011W
MXEr091/37.5MODENA VORTAC113.2009W
DQOr070/39.5DUPONT VORTAC114.0010W

 
NDB name  Hdg/Dist  Freq  Var  ID
AMBLER122/20.627512WING .. -. --.
LAKEHURST276/24.439611WNEL -. . .-..
RAINBOW031/37.536311WRNB .-. -. -...

Heliport Services

Runway Information

Helipad H1

Dimensions: 15 x 15 ft. / 5 x 5 m
Surface: turf
Traffic pattern: leftleft

Heliport Ownership and Management from official FAA records

Ownership: Privately-owned
Owner: BLUE JAY ASSOCIATES
RT 1 BOX 1038 RANCOCAS RD
MOUNT HOLLY, NJ 08060
Phone 609-267-3300
Manager: ROBERT WOODMAN
RT 1 BOX 1038 RANCOCAS RD
MOUNT HOLLY, NJ 08060
Phone 609-267-3300

Heliport Operational Statistics

Aircraft based on the field: 1
Helicopters: 1
    

Additional Remarks

A52-H1 100' ANTENNA 150' NORTH 30' TREES 100' WEST.
FOR CD CTC PHILADELPHIA APCH AT 800-354-9884.

Instrument Procedures

There are no published instrument procedures at 56NJ.

Some nearby airports with instrument procedures:

KVAY - South Jersey Regional Airport (4 nm S)
N14 - Flying W Airport (5 nm SE)
KPNE - Northeast Philadelphia Airport (8 nm NW)
KWRI - McGuire Field (Joint Base Mc Guire Dix Lakehurst) Airport (13 nm E)
19N - Camden County Airport (14 nm S)
KTTN - Trenton Mercer Airport (16 nm N)
N87 - Trenton-Robbinsville Airport (17 nm NE)
KPHL - Philadelphia International Airport (19 nm SW)
17N - Cross Keys Airport (20 nm SW)
 
Loc | Ops | Rwys | IFR | FBO | Links
Com | Nav | Svcs | Stats | Notes
Area around 56NJ (Blue Jay Heliport)
 
Road maps at: MapQuest Bing Google
 
Aerial photo
No photo
 
Sectional chart

 
Airport distance calculator
Flying to Blue Jay Heliport? Find the distance to fly.

From to 56NJ

Sunrise and sunset
Times for 12-Nov-2019
 Local
(UTC-5)
 Zulu
(UTC)
Morning civil twilight06:1311:13
Sunrise06:4211:42
Sunset16:4521:45
Evening civil twilight17:1422:14

Current date and time
Zulu (UTC)  13-Nov-2019 02:13:45
Local (UTC-5)  12-Nov-2019 21:13:45
 
METAR
KVAY 
5nm S 
ASOS 119.325 609-267-1176
130154Z AUTO 34012KT 10SM CLR M02/M12 A3018 RMK AO2 SLP219 T10171117
KPNE 
8nm NW 
130154Z 35013KT 10SM CLR M01/M12 A3019 RMK AO2 PK WND 01026/0110 SLP225 T10111117 $
KWRI 
13nm E 
130156Z AUTO 32013KT 10SM CLR M03/M13 A3015 RMK AO2 SLP211 T10271127
KTTN 
17nm N 
ASOS 133.70 609-538-8690
130153Z 33007KT 10SM CLR M03/M13 A3016 RMK AO2 SLP209 T10331133
KPHL 
19nm SW 
130154Z 36012G20KT 10SM FEW250 M02/M11 A3019 RMK AO2 PK WND 34026/0139 SLP224 T10171111 $
TAF
KPNE 
8nm NW 
121725Z 1218/1318 32013G22KT P6SM SCT030 OVC060 TEMPO 1218/1220 BKN030 FM122200 33014G22KT P6SM FEW250 FM130300 33011KT P6SM SKC
KWRI 
13nm E 
121800Z 1218/1324 33010G15KT 8000 -SN OVC020 650209 QNH2993INS TEMPO 1218/1220 33015G25KT BKN015 BECMG 1220/1221 33015G25KT 9999 NSW SCT020 BKN120 QNH2997INS BECMG 1223/1224 34015G25KT 9999 SKC QNH3006INS BECMG 1303/1304 32012G18KT 9999 SKC QNH3015INS TEMPO 1314/1318 32015G25KT TX01/1218Z TNM07/1310Z
KTTN 
17nm N 
121725Z 1218/1318 32013G21KT P6SM SCT030 OVC060 TEMPO 1218/1220 BKN030 FM122300 32014G22KT P6SM FEW250 FM130300 32011KT P6SM SKC
KPHL 
19nm SW 
122057Z 1221/1324 32013G21KT P6SM FEW035 FM122300 32013G19KT P6SM FEW250 FM130200 32012KT P6SM SKC FM132100 36005KT P6SM FEW250
NOTAMs
Click for the latest NOTAMs
NOTAMs are issued by the DoD/FAA and will open in a separate window not controlled by AirNav.

 

 
 

Would you like to see your business listed on this page?

 If your business provides an interesting product or service to pilots, flight crews, aircraft, or users of the Blue Jay Heliport, you should consider listing it here.  To start the listing process, click on the button below
 
Add a business
 

Other Pages about Blue Jay Heliport

Update a link
 
Copyright © AirNav, LLC. All rights reserved. Privacy Policy  Contact